sensor_id;sensor_type;location;lat;lon;timestamp;P1;durP1;ratioP1;P2;durP2;ratioP2
60979;SDS011;46851;49.160;8.980;2023-04-24T00:01:11;1.35;;;0.70;;
60979;SDS011;46851;49.160;8.980;2023-04-24T00:03:38;3.15;;;0.68;;
60979;SDS011;46851;49.160;8.980;2023-04-24T00:06:04;1.05;;;0.60;;
60979;SDS011;46851;49.160;8.980;2023-04-24T00:08:33;1.42;;;0.60;;
60979;SDS011;46851;49.160;8.980;2023-04-24T00:10:59;0.90;;;0.63;;
60979;SDS011;46851;49.160;8.980;2023-04-24T00:13:25;2.03;;;0.70;;
60979;SDS011;46851;49.160;8.980;2023-04-24T00:15:53;2.80;;;0.90;;
60979;SDS011;46851;49.160;8.980;2023-04-24T00:18:19;1.15;;;0.68;;
60979;SDS011;46851;49.160;8.980;2023-04-24T00:20:45;1.67;;;0.70;;
60979;SDS011;46851;49.160;8.980;2023-04-24T00:23:11;2.33;;;0.75;;
60979;SDS011;46851;49.160;8.980;2023-04-24T00:25:37;2.70;;;0.70;;
60979;SDS011;46851;49.160;8.980;2023-04-24T00:28:03;4.63;;;0.82;;
60979;SDS011;46851;49.160;8.980;2023-04-24T00:30:30;2.97;;;0.70;;
60979;SDS011;46851;49.160;8.980;2023-04-24T00:32:56;2.03;;;0.73;;
60979;SDS011;46851;49.160;8.980;2023-04-24T00:35:22;4.65;;;0.75;;
60979;SDS011;46851;49.160;8.980;2023-04-24T00:37:48;3.97;;;0.80;;
60979;SDS011;46851;49.160;8.980;2023-04-24T00:40:14;1.77;;;0.50;;
60979;SDS011;46851;49.160;8.980;2023-04-24T00:42:40;1.05;;;0.60;;
60979;SDS011;46851;49.160;8.980;2023-04-24T00:45:07;2.30;;;0.93;;
60979;SDS011;46851;49.160;8.980;2023-04-24T00:47:33;1.05;;;0.60;;
60979;SDS011;46851;49.160;8.980;2023-04-24T00:50:03;1.35;;;0.55;;
60979;SDS011;46851;49.160;8.980;2023-04-24T00:52:29;1.08;;;0.52;;
60979;SDS011;46851;49.160;8.980;2023-04-24T00:54:57;2.33;;;0.60;;
60979;SDS011;46851;49.160;8.980;2023-04-24T00:57:23;1.45;;;0.63;;
60979;SDS011;46851;49.160;8.980;2023-04-24T00:59:49;2.03;;;0.65;;
60979;SDS011;46851;49.160;8.980;2023-04-24T01:02:16;1.23;;;0.60;;
60979;SDS011;46851;49.160;8.980;2023-04-24T01:04:42;4.78;;;0.95;;
60979;SDS011;46851;49.160;8.980;2023-04-24T01:07:08;1.70;;;0.70;;
60979;SDS011;46851;49.160;8.980;2023-04-24T01:09:45;2.97;;;0.63;;
60979;SDS011;46851;49.160;8.980;2023-04-24T01:12:13;2.83;;;0.80;;
60979;SDS011;46851;49.160;8.980;2023-04-24T01:14:40;3.45;;;0.80;;
60979;SDS011;46851;49.160;8.980;2023-04-24T01:17:06;1.40;;;0.60;;
60979;SDS011;46851;49.160;8.980;2023-04-24T01:19:34;1.83;;;0.70;;
60979;SDS011;46851;49.160;8.980;2023-04-24T01:22:01;1.30;;;0.57;;
60979;SDS011;46851;49.160;8.980;2023-04-24T01:24:28;2.53;;;0.70;;
60979;SDS011;46851;49.160;8.980;2023-04-24T01:26:54;1.85;;;0.95;;
60979;SDS011;46851;49.160;8.980;2023-04-24T01:29:20;1.40;;;0.70;;
60979;SDS011;46851;49.160;8.980;2023-04-24T01:31:47;2.30;;;0.60;;
60979;SDS011;46851;49.160;8.980;2023-04-24T01:34:13;1.63;;;0.80;;
60979;SDS011;46851;49.160;8.980;2023-04-24T01:36:39;1.17;;;0.68;;
60979;SDS011;46851;49.160;8.980;2023-04-24T01:39:06;1.45;;;0.65;;
60979;SDS011;46851;49.160;8.980;2023-04-24T01:41:32;2.00;;;1.00;;
60979;SDS011;46851;49.160;8.980;2023-04-24T01:43:58;3.15;;;0.60;;
60979;SDS011;46851;49.160;8.980;2023-04-24T01:46:24;3.20;;;0.63;;
60979;SDS011;46851;49.160;8.980;2023-04-24T01:48:51;1.52;;;0.60;;
60979;SDS011;46851;49.160;8.980;2023-04-24T01:51:17;3.83;;;0.70;;
60979;SDS011;46851;49.160;8.980;2023-04-24T01:53:43;2.50;;;0.70;;
60979;SDS011;46851;49.160;8.980;2023-04-24T01:56:09;4.70;;;1.15;;
60979;SDS011;46851;49.160;8.980;2023-04-24T01:58:35;2.03;;;0.80;;
60979;SDS011;46851;49.160;8.980;2023-04-24T02:01:01;2.30;;;0.80;;
60979;SDS011;46851;49.160;8.980;2023-04-24T02:03:27;1.02;;;0.70;;
60979;SDS011;46851;49.160;8.980;2023-04-24T02:05:54;3.72;;;1.10;;
60979;SDS011;46851;49.160;8.980;2023-04-24T02:08:20;2.00;;;1.00;;
60979;SDS011;46851;49.160;8.980;2023-04-24T02:10:46;3.55;;;0.95;;
60979;SDS011;46851;49.160;8.980;2023-04-24T02:13:12;2.20;;;0.60;;
60979;SDS011;46851;49.160;8.980;2023-04-24T02:15:38;2.00;;;0.68;;
60979;SDS011;46851;49.160;8.980;2023-04-24T02:18:04;4.32;;;0.70;;
60979;SDS011;46851;49.160;8.980;2023-04-24T02:20:31;1.48;;;0.70;;
60979;SDS011;46851;49.160;8.980;2023-04-24T02:22:59;2.25;;;0.85;;
60979;SDS011;46851;49.160;8.980;2023-04-24T02:25:25;2.05;;;0.90;;
60979;SDS011;46851;49.160;8.980;2023-04-24T02:27:51;1.92;;;1.00;;
60979;SDS011;46851;49.160;8.980;2023-04-24T02:30:17;2.15;;;0.77;;
60979;SDS011;46851;49.160;8.980;2023-04-24T02:32:43;2.15;;;1.13;;
60979;SDS011;46851;49.160;8.980;2023-04-24T02:35:09;1.08;;;0.70;;
60979;SDS011;46851;49.160;8.980;2023-04-24T02:37:35;0.90;;;0.60;;
60979;SDS011;46851;49.160;8.980;2023-04-24T02:40:01;4.68;;;1.13;;
60979;SDS011;46851;49.160;8.980;2023-04-24T02:42:27;2.03;;;0.75;;
60979;SDS011;46851;49.160;8.980;2023-04-24T02:44:53;3.13;;;0.80;;
60979;SDS011;46851;49.160;8.980;2023-04-24T02:47:19;3.10;;;1.00;;
60979;SDS011;46851;49.160;8.980;2023-04-24T02:49:45;8.80;;;0.80;;
60979;SDS011;46851;49.160;8.980;2023-04-24T02:52:11;1.25;;;0.80;;
60979;SDS011;46851;49.160;8.980;2023-04-24T02:54:38;3.22;;;0.82;;
60979;SDS011;46851;49.160;8.980;2023-04-24T02:57:04;3.10;;;0.82;;
60979;SDS011;46851;49.160;8.980;2023-04-24T02:59:31;3.55;;;0.98;;
60979;SDS011;46851;49.160;8.980;2023-04-24T03:01:57;2.65;;;1.00;;
60979;SDS011;46851;49.160;8.980;2023-04-24T03:04:22;14.82;;;1.30;;
60979;SDS011;46851;49.160;8.980;2023-04-24T03:06:48;1.38;;;0.90;;
60979;SDS011;46851;49.160;8.980;2023-04-24T03:09:17;3.83;;;1.00;;
60979;SDS011;46851;49.160;8.980;2023-04-24T03:11:43;5.45;;;1.00;;
60979;SDS011;46851;49.160;8.980;2023-04-24T03:14:09;2.92;;;0.75;;
60979;SDS011;46851;49.160;8.980;2023-04-24T03:16:35;1.67;;;0.77;;
60979;SDS011;46851;49.160;8.980;2023-04-24T03:19:01;3.30;;;1.10;;
60979;SDS011;46851;49.160;8.980;2023-04-24T03:21:27;3.28;;;0.93;;
60979;SDS011;46851;49.160;8.980;2023-04-24T03:23:53;1.27;;;0.90;;
60979;SDS011;46851;49.160;8.980;2023-04-24T03:26:19;2.88;;;0.80;;
60979;SDS011;46851;49.160;8.980;2023-04-24T03:28:45;1.38;;;1.20;;
60979;SDS011;46851;49.160;8.980;2023-04-24T03:31:11;1.45;;;1.00;;
60979;SDS011;46851;49.160;8.980;2023-04-24T03:33:37;1.25;;;0.90;;
60979;SDS011;46851;49.160;8.980;2023-04-24T03:36:03;3.42;;;0.90;;
60979;SDS011;46851;49.160;8.980;2023-04-24T03:38:30;1.65;;;0.70;;
60979;SDS011;46851;49.160;8.980;2023-04-24T03:40:56;3.28;;;1.20;;
60979;SDS011;46851;49.160;8.980;2023-04-24T03:43:21;3.75;;;1.05;;
60979;SDS011;46851;49.160;8.980;2023-04-24T03:45:47;5.70;;;2.30;;
60979;SDS011;46851;49.160;8.980;2023-04-24T03:48:13;3.20;;;1.10;;
60979;SDS011;46851;49.160;8.980;2023-04-24T03:50:40;2.90;;;1.10;;
60979;SDS011;46851;49.160;8.980;2023-04-24T03:53:06;2.05;;;0.98;;
60979;SDS011;46851;49.160;8.980;2023-04-24T03:55:31;4.43;;;0.90;;
60979;SDS011;46851;49.160;8.980;2023-04-24T03:57:57;2.08;;;0.90;;
60979;SDS011;46851;49.160;8.980;2023-04-24T04:00:25;5.28;;;1.30;;
60979;SDS011;46851;49.160;8.980;2023-04-24T04:02:51;2.90;;;1.13;;
60979;SDS011;46851;49.160;8.980;2023-04-24T04:05:17;6.63;;;1.35;;
60979;SDS011;46851;49.160;8.980;2023-04-24T04:07:43;4.88;;;1.15;;
60979;SDS011;46851;49.160;8.980;2023-04-24T04:10:09;3.72;;;1.30;;
60979;SDS011;46851;49.160;8.980;2023-04-24T04:12:35;2.65;;;1.30;;
60979;SDS011;46851;49.160;8.980;2023-04-24T04:15:01;2.60;;;1.48;;
60979;SDS011;46851;49.160;8.980;2023-04-24T04:17:27;3.47;;;1.75;;
60979;SDS011;46851;49.160;8.980;2023-04-24T04:19:53;2.78;;;1.52;;
60979;SDS011;46851;49.160;8.980;2023-04-24T04:22:19;2.17;;;1.60;;
60979;SDS011;46851;49.160;8.980;2023-04-24T04:24:45;4.90;;;2.00;;
60979;SDS011;46851;49.160;8.980;2023-04-24T04:27:11;4.93;;;1.90;;
60979;SDS011;46851;49.160;8.980;2023-04-24T04:29:37;13.27;;;2.35;;
60979;SDS011;46851;49.160;8.980;2023-04-24T04:32:03;6.30;;;2.50;;
60979;SDS011;46851;49.160;8.980;2023-04-24T04:34:29;7.25;;;3.10;;
60979;SDS011;46851;49.160;8.980;2023-04-24T04:36:56;8.52;;;2.60;;
60979;SDS011;46851;49.160;8.980;2023-04-24T04:39:26;5.60;;;3.03;;
60979;SDS011;46851;49.160;8.980;2023-04-24T04:41:53;6.72;;;3.13;;
60979;SDS011;46851;49.160;8.980;2023-04-24T04:44:19;10.35;;;3.72;;
60979;SDS011;46851;49.160;8.980;2023-04-24T04:46:45;16.00;;;4.03;;
60979;SDS011;46851;49.160;8.980;2023-04-24T04:49:12;9.93;;;3.70;;
60979;SDS011;46851;49.160;8.980;2023-04-24T04:51:41;12.13;;;4.50;;
60979;SDS011;46851;49.160;8.980;2023-04-24T04:54:07;8.93;;;3.92;;
60979;SDS011;46851;49.160;8.980;2023-04-24T04:56:33;10.77;;;3.85;;
60979;SDS011;46851;49.160;8.980;2023-04-24T04:58:59;21.67;;;4.35;;
60979;SDS011;46851;49.160;8.980;2023-04-24T05:01:25;24.98;;;5.55;;
60979;SDS011;46851;49.160;8.980;2023-04-24T05:03:52;20.25;;;4.70;;
60979;SDS011;46851;49.160;8.980;2023-04-24T05:06:18;29.48;;;6.32;;
60979;SDS011;46851;49.160;8.980;2023-04-24T05:08:44;48.17;;;6.65;;
60979;SDS011;46851;49.160;8.980;2023-04-24T05:11:10;33.17;;;6.22;;
60979;SDS011;46851;49.160;8.980;2023-04-24T05:13:36;26.73;;;6.18;;
60979;SDS011;46851;49.160;8.980;2023-04-24T05:16:02;35.05;;;7.00;;
60979;SDS011;46851;49.160;8.980;2023-04-24T05:18:28;39.35;;;7.90;;
60979;SDS011;46851;49.160;8.980;2023-04-24T05:20:55;28.58;;;7.25;;
60979;SDS011;46851;49.160;8.980;2023-04-24T05:23:21;24.83;;;6.38;;
60979;SDS011;46851;49.160;8.980;2023-04-24T05:25:47;18.40;;;5.70;;
60979;SDS011;46851;49.160;8.980;2023-04-24T05:28:13;13.00;;;4.63;;
60979;SDS011;46851;49.160;8.980;2023-04-24T05:30:40;10.30;;;5.07;;
60979;SDS011;46851;49.160;8.980;2023-04-24T05:33:06;3.47;;;2.75;;
60979;SDS011;46851;49.160;8.980;2023-04-24T05:35:33;4.22;;;3.22;;
60979;SDS011;46851;49.160;8.980;2023-04-24T05:37:59;2.67;;;2.40;;
60979;SDS011;46851;49.160;8.980;2023-04-24T05:40:25;5.70;;;3.00;;
60979;SDS011;46851;49.160;8.980;2023-04-24T05:42:51;6.68;;;3.38;;
60979;SDS011;46851;49.160;8.980;2023-04-24T05:45:17;7.82;;;3.30;;
60979;SDS011;46851;49.160;8.980;2023-04-24T05:47:43;5.95;;;2.92;;
60979;SDS011;46851;49.160;8.980;2023-04-24T05:50:10;5.50;;;2.63;;
60979;SDS011;46851;49.160;8.980;2023-04-24T05:52:36;4.18;;;2.67;;
60979;SDS011;46851;49.160;8.980;2023-04-24T05:55:02;4.20;;;2.15;;
60979;SDS011;46851;49.160;8.980;2023-04-24T05:57:28;4.05;;;2.28;;
60979;SDS011;46851;49.160;8.980;2023-04-24T05:59:55;2.78;;;2.20;;
60979;SDS011;46851;49.160;8.980;2023-04-24T06:02:21;5.43;;;2.60;;
60979;SDS011;46851;49.160;8.980;2023-04-24T06:04:47;5.22;;;2.70;;
60979;SDS011;46851;49.160;8.980;2023-04-24T06:07:13;6.38;;;2.67;;
60979;SDS011;46851;49.160;8.980;2023-04-24T06:09:40;3.30;;;2.90;;
60979;SDS011;46851;49.160;8.980;2023-04-24T06:12:06;5.00;;;2.22;;
60979;SDS011;46851;49.160;8.980;2023-04-24T06:14:33;2.78;;;2.08;;
60979;SDS011;46851;49.160;8.980;2023-04-24T06:16:59;7.65;;;3.33;;
60979;SDS011;46851;49.160;8.980;2023-04-24T06:19:25;4.72;;;2.60;;
60979;SDS011;46851;49.160;8.980;2023-04-24T06:21:51;5.78;;;3.60;;
60979;SDS011;46851;49.160;8.980;2023-04-24T06:24:17;3.03;;;2.42;;
60979;SDS011;46851;49.160;8.980;2023-04-24T06:26:43;5.32;;;2.45;;
60979;SDS011;46851;49.160;8.980;2023-04-24T06:29:09;7.93;;;2.45;;
60979;SDS011;46851;49.160;8.980;2023-04-24T06:31:35;4.55;;;2.45;;
60979;SDS011;46851;49.160;8.980;2023-04-24T06:34:05;4.05;;;2.17;;
60979;SDS011;46851;49.160;8.980;2023-04-24T06:36:31;5.10;;;3.05;;
60979;SDS011;46851;49.160;8.980;2023-04-24T06:38:59;7.55;;;2.80;;
60979;SDS011;46851;49.160;8.980;2023-04-24T06:41:25;6.03;;;2.80;;
60979;SDS011;46851;49.160;8.980;2023-04-24T06:43:51;4.15;;;2.50;;
60979;SDS011;46851;49.160;8.980;2023-04-24T06:46:17;5.43;;;2.28;;
60979;SDS011;46851;49.160;8.980;2023-04-24T06:48:43;3.67;;;2.03;;
60979;SDS011;46851;49.160;8.980;2023-04-24T06:51:09;5.75;;;2.70;;
60979;SDS011;46851;49.160;8.980;2023-04-24T06:59:46;12.60;;;2.38;;
60979;SDS011;46851;49.160;8.980;2023-04-24T07:02:12;9.32;;;3.42;;
60979;SDS011;46851;49.160;8.980;2023-04-24T07:04:38;14.23;;;2.60;;
60979;SDS011;46851;49.160;8.980;2023-04-24T07:07:04;6.35;;;2.38;;
60979;SDS011;46851;49.160;8.980;2023-04-24T07:09:31;5.57;;;2.22;;
60979;SDS011;46851;49.160;8.980;2023-04-24T07:12:00;8.00;;;1.80;;
60979;SDS011;46851;49.160;8.980;2023-04-24T07:14:26;6.03;;;2.33;;
60979;SDS011;46851;49.160;8.980;2023-04-24T07:16:52;8.10;;;2.20;;
60979;SDS011;46851;49.160;8.980;2023-04-24T07:19:18;4.07;;;2.17;;
60979;SDS011;46851;49.160;8.980;2023-04-24T07:21:44;120.85;;;10.07;;
60979;SDS011;46851;49.160;8.980;2023-04-24T07:24:10;10.40;;;2.33;;
60979;SDS011;46851;49.160;8.980;2023-04-24T07:26:37;6.57;;;2.22;;
60979;SDS011;46851;49.160;8.980;2023-04-24T07:29:07;5.38;;;2.00;;
60979;SDS011;46851;49.160;8.980;2023-04-24T07:31:33;6.63;;;2.08;;
60979;SDS011;46851;49.160;8.980;2023-04-24T07:33:59;3.47;;;2.00;;
60979;SDS011;46851;49.160;8.980;2023-04-24T07:36:25;8.43;;;2.28;;
60979;SDS011;46851;49.160;8.980;2023-04-24T07:38:51;56.72;;;5.07;;
60979;SDS011;46851;49.160;8.980;2023-04-24T07:41:18;8.07;;;2.88;;
60979;SDS011;46851;49.160;8.980;2023-04-24T07:43:44;4.30;;;1.73;;
60979;SDS011;46851;49.160;8.980;2023-04-24T07:46:10;4.43;;;1.95;;
60979;SDS011;46851;49.160;8.980;2023-04-24T07:48:36;3.70;;;1.98;;
60979;SDS011;46851;49.160;8.980;2023-04-24T07:51:02;13.20;;;2.10;;
60979;SDS011;46851;49.160;8.980;2023-04-24T07:53:28;33.03;;;3.80;;
60979;SDS011;46851;49.160;8.980;2023-04-24T07:55:55;2.85;;;1.50;;
60979;SDS011;46851;49.160;8.980;2023-04-24T07:58:21;5.43;;;1.83;;
60979;SDS011;46851;49.160;8.980;2023-04-24T08:00:47;57.80;;;5.30;;
60979;SDS011;46851;49.160;8.980;2023-04-24T08:03:13;2.78;;;1.70;;
60979;SDS011;46851;49.160;8.980;2023-04-24T08:05:40;6.05;;;2.22;;
60979;SDS011;46851;49.160;8.980;2023-04-24T08:08:08;8.45;;;2.13;;
60979;SDS011;46851;49.160;8.980;2023-04-24T08:10:33;15.15;;;2.10;;
60979;SDS011;46851;49.160;8.980;2023-04-24T08:12:59;8.55;;;2.22;;
60979;SDS011;46851;49.160;8.980;2023-04-24T08:15:26;7.25;;;1.85;;
60979;SDS011;46851;49.160;8.980;2023-04-24T08:17:52;3.92;;;1.73;;
60979;SDS011;46851;49.160;8.980;2023-04-24T08:20:19;11.10;;;2.33;;
60979;SDS011;46851;49.160;8.980;2023-04-24T08:22:44;31.88;;;3.03;;
60979;SDS011;46851;49.160;8.980;2023-04-24T08:25:12;10.25;;;2.50;;
60979;SDS011;46851;49.160;8.980;2023-04-24T08:27:38;14.20;;;4.28;;
60979;SDS011;46851;49.160;8.980;2023-04-24T08:30:04;11.90;;;2.97;;
60979;SDS011;46851;49.160;8.980;2023-04-24T08:32:31;8.57;;;2.20;;
60979;SDS011;46851;49.160;8.980;2023-04-24T08:34:57;3.42;;;2.00;;
60979;SDS011;46851;49.160;8.980;2023-04-24T08:37:23;9.25;;;2.60;;
60979;SDS011;46851;49.160;8.980;2023-04-24T08:39:49;3.53;;;1.85;;
60979;SDS011;46851;49.160;8.980;2023-04-24T08:42:17;5.22;;;1.40;;
60979;SDS011;46851;49.160;8.980;2023-04-24T08:44:43;5.88;;;1.35;;
60979;SDS011;46851;49.160;8.980;2023-04-24T08:47:09;3.03;;;1.08;;
60979;SDS011;46851;49.160;8.980;2023-04-24T08:49:36;2.25;;;1.10;;
60979;SDS011;46851;49.160;8.980;2023-04-24T08:52:02;9.32;;;1.35;;
60979;SDS011;46851;49.160;8.980;2023-04-24T08:54:29;2.00;;;0.75;;
60979;SDS011;46851;49.160;8.980;2023-04-24T08:56:58;4.15;;;0.90;;
60979;SDS011;46851;49.160;8.980;2023-04-24T08:59:29;1.05;;;0.73;;
60979;SDS011;46851;49.160;8.980;2023-04-24T09:01:55;2.65;;;0.95;;
60979;SDS011;46851;49.160;8.980;2023-04-24T09:04:22;4.63;;;1.02;;
60979;SDS011;46851;49.160;8.980;2023-04-24T09:06:50;3.45;;;1.23;;
60979;SDS011;46851;49.160;8.980;2023-04-24T09:09:16;2.10;;;1.00;;
60979;SDS011;46851;49.160;8.980;2023-04-24T09:11:43;4.47;;;1.10;;
60979;SDS011;46851;49.160;8.980;2023-04-24T09:14:10;16.92;;;2.35;;
60979;SDS011;46851;49.160;8.980;2023-04-24T09:16:36;2.85;;;1.10;;
60979;SDS011;46851;49.160;8.980;2023-04-24T09:19:02;1.42;;;0.90;;
60979;SDS011;46851;49.160;8.980;2023-04-24T09:21:32;4.70;;;1.20;;
60979;SDS011;46851;49.160;8.980;2023-04-24T09:23:59;8.98;;;1.88;;
60979;SDS011;46851;49.160;8.980;2023-04-24T09:26:25;3.05;;;1.30;;
60979;SDS011;46851;49.160;8.980;2023-04-24T09:28:53;3.97;;;1.15;;
60979;SDS011;46851;49.160;8.980;2023-04-24T09:31:19;2.60;;;1.20;;
60979;SDS011;46851;49.160;8.980;2023-04-24T09:33:57;2.05;;;0.80;;
60979;SDS011;46851;49.160;8.980;2023-04-24T09:36:33;6.72;;;1.20;;
60979;SDS011;46851;49.160;8.980;2023-04-24T09:39:02;22.00;;;2.33;;
60979;SDS011;46851;49.160;8.980;2023-04-24T09:41:29;5.25;;;1.10;;
60979;SDS011;46851;49.160;8.980;2023-04-24T09:43:56;4.40;;;1.10;;
60979;SDS011;46851;49.160;8.980;2023-04-24T09:46:29;10.82;;;1.60;;
60979;SDS011;46851;49.160;8.980;2023-04-24T09:48:55;10.73;;;1.70;;
60979;SDS011;46851;49.160;8.980;2023-04-24T09:51:34;17.55;;;2.90;;
60979;SDS011;46851;49.160;8.980;2023-04-24T09:54:01;13.55;;;1.77;;
60979;SDS011;46851;49.160;8.980;2023-04-24T09:56:28;5.80;;;2.03;;
60979;SDS011;46851;49.160;8.980;2023-04-24T09:59:04;12.43;;;2.42;;
60979;SDS011;46851;49.160;8.980;2023-04-24T10:01:31;9.88;;;2.50;;
60979;SDS011;46851;49.160;8.980;2023-04-24T10:03:57;8.75;;;2.33;;
60979;SDS011;46851;49.160;8.980;2023-04-24T10:06:29;11.70;;;2.67;;
60979;SDS011;46851;49.160;8.980;2023-04-24T10:08:55;6.47;;;2.00;;
60979;SDS011;46851;49.160;8.980;2023-04-24T10:11:23;6.22;;;2.25;;
60979;SDS011;46851;49.160;8.980;2023-04-24T10:13:49;3.38;;;2.30;;
60979;SDS011;46851;49.160;8.980;2023-04-24T10:16:16;9.88;;;2.72;;
60979;SDS011;46851;49.160;8.980;2023-04-24T10:18:42;4.90;;;2.35;;
60979;SDS011;46851;49.160;8.980;2023-04-24T10:21:08;5.22;;;2.45;;
60979;SDS011;46851;49.160;8.980;2023-04-24T10:23:34;58.83;;;6.93;;
60979;SDS011;46851;49.160;8.980;2023-04-24T10:26:00;4.80;;;2.50;;
60979;SDS011;46851;49.160;8.980;2023-04-24T10:28:26;163.85;;;14.75;;
60979;SDS011;46851;49.160;8.980;2023-04-24T10:30:54;5.90;;;2.40;;
60979;SDS011;46851;49.160;8.980;2023-04-24T10:33:20;4.47;;;2.50;;
60979;SDS011;46851;49.160;8.980;2023-04-24T10:35:47;3.78;;;2.38;;
60979;SDS011;46851;49.160;8.980;2023-04-24T10:38:15;2.95;;;2.20;;
60979;SDS011;46851;49.160;8.980;2023-04-24T10:40:42;4.13;;;1.88;;
60979;SDS011;46851;49.160;8.980;2023-04-24T10:43:09;4.68;;;2.50;;
60979;SDS011;46851;49.160;8.980;2023-04-24T10:45:36;4.32;;;2.20;;
60979;SDS011;46851;49.160;8.980;2023-04-24T10:48:06;6.47;;;2.70;;
60979;SDS011;46851;49.160;8.980;2023-04-24T10:53:13;10.77;;;2.92;;
60979;SDS011;46851;49.160;8.980;2023-04-24T10:55:44;12.05;;;2.67;;
60979;SDS011;46851;49.160;8.980;2023-04-24T10:58:10;7.75;;;2.55;;
60979;SDS011;46851;49.160;8.980;2023-04-24T11:00:37;5.05;;;2.25;;
60979;SDS011;46851;49.160;8.980;2023-04-24T11:03:12;5.22;;;2.20;;
60979;SDS011;46851;49.160;8.980;2023-04-24T11:05:52;10.95;;;2.42;;
60979;SDS011;46851;49.160;8.980;2023-04-24T11:08:23;3.90;;;2.20;;
60979;SDS011;46851;49.160;8.980;2023-04-24T11:10:56;6.10;;;2.42;;
60979;SDS011;46851;49.160;8.980;2023-04-24T11:13:24;4.65;;;2.45;;
60979;SDS011;46851;49.160;8.980;2023-04-24T11:18:41;9.20;;;2.83;;
60979;SDS011;46851;49.160;8.980;2023-04-24T11:21:11;11.50;;;3.95;;
60979;SDS011;46851;49.160;8.980;2023-04-24T11:23:39;8.65;;;4.03;;
60979;SDS011;46851;49.160;8.980;2023-04-24T11:26:26;9.13;;;3.80;;
60979;SDS011;46851;49.160;8.980;2023-04-24T11:29:05;14.75;;;4.50;;
60979;SDS011;46851;49.160;8.980;2023-04-24T11:31:39;9.82;;;4.15;;
60979;SDS011;46851;49.160;8.980;2023-04-24T11:34:06;6.28;;;3.50;;
60979;SDS011;46851;49.160;8.980;2023-04-24T11:36:33;7.28;;;3.80;;
60979;SDS011;46851;49.160;8.980;2023-04-24T11:38:59;7.55;;;4.20;;
60979;SDS011;46851;49.160;8.980;2023-04-24T11:41:26;5.03;;;3.67;;
60979;SDS011;46851;49.160;8.980;2023-04-24T11:43:52;7.43;;;4.25;;
60979;SDS011;46851;49.160;8.980;2023-04-24T11:46:20;5.63;;;3.53;;
60979;SDS011;46851;49.160;8.980;2023-04-24T11:48:46;5.47;;;3.58;;
60979;SDS011;46851;49.160;8.980;2023-04-24T11:51:13;6.30;;;3.75;;
60979;SDS011;46851;49.160;8.980;2023-04-24T11:53:39;7.22;;;3.83;;
60979;SDS011;46851;49.160;8.980;2023-04-24T11:56:05;5.22;;;3.17;;
60979;SDS011;46851;49.160;8.980;2023-04-24T11:58:34;8.75;;;3.33;;
60979;SDS011;46851;49.160;8.980;2023-04-24T12:01:01;7.32;;;3.03;;
60979;SDS011;46851;49.160;8.980;2023-04-24T12:03:27;10.20;;;3.33;;
60979;SDS011;46851;49.160;8.980;2023-04-24T12:06:03;5.00;;;3.25;;
60979;SDS011;46851;49.160;8.980;2023-04-24T12:08:31;5.80;;;3.33;;
60979;SDS011;46851;49.160;8.980;2023-04-24T12:10:57;5.63;;;3.85;;
60979;SDS011;46851;49.160;8.980;2023-04-24T12:13:25;8.55;;;3.60;;
60979;SDS011;46851;49.160;8.980;2023-04-24T12:15:51;11.32;;;3.72;;
60979;SDS011;46851;49.160;8.980;2023-04-24T12:18:17;18.42;;;3.75;;
60979;SDS011;46851;49.160;8.980;2023-04-24T12:20:43;13.23;;;3.35;;
60979;SDS011;46851;49.160;8.980;2023-04-24T12:23:09;24.27;;;3.78;;
60979;SDS011;46851;49.160;8.980;2023-04-24T12:25:35;6.00;;;3.58;;
60979;SDS011;46851;49.160;8.980;2023-04-24T12:30:31;6.47;;;3.47;;
60979;SDS011;46851;49.160;8.980;2023-04-24T12:32:58;12.45;;;4.10;;
60979;SDS011;46851;49.160;8.980;2023-04-24T12:35:26;13.70;;;4.47;;
60979;SDS011;46851;49.160;8.980;2023-04-24T12:37:52;24.95;;;4.07;;
60979;SDS011;46851;49.160;8.980;2023-04-24T12:40:19;8.85;;;3.50;;
60979;SDS011;46851;49.160;8.980;2023-04-24T12:42:46;8.25;;;2.83;;
60979;SDS011;46851;49.160;8.980;2023-04-24T12:45:13;3.72;;;2.80;;
60979;SDS011;46851;49.160;8.980;2023-04-24T12:47:40;8.23;;;2.75;;
60979;SDS011;46851;49.160;8.980;2023-04-24T12:50:10;29.00;;;4.13;;
60979;SDS011;46851;49.160;8.980;2023-04-24T12:52:36;5.80;;;3.28;;
60979;SDS011;46851;49.160;8.980;2023-04-24T12:55:02;6.68;;;3.50;;
60979;SDS011;46851;49.160;8.980;2023-04-24T12:57:30;8.05;;;3.75;;
60979;SDS011;46851;49.160;8.980;2023-04-24T12:59:57;6.45;;;3.40;;
60979;SDS011;46851;49.160;8.980;2023-04-24T13:02:24;7.22;;;4.40;;
60979;SDS011;46851;49.160;8.980;2023-04-24T13:04:50;7.45;;;4.03;;
60979;SDS011;46851;49.160;8.980;2023-04-24T13:07:17;7.47;;;4.35;;
60979;SDS011;46851;49.160;8.980;2023-04-24T13:09:43;8.63;;;4.00;;
60979;SDS011;46851;49.160;8.980;2023-04-24T13:12:10;36.85;;;5.85;;
60979;SDS011;46851;49.160;8.980;2023-04-24T13:14:36;9.43;;;4.05;;
60979;SDS011;46851;49.160;8.980;2023-04-24T13:17:03;8.57;;;4.45;;
60979;SDS011;46851;49.160;8.980;2023-04-24T13:19:29;13.27;;;3.97;;
60979;SDS011;46851;49.160;8.980;2023-04-24T13:21:56;5.18;;;3.50;;
60979;SDS011;46851;49.160;8.980;2023-04-24T13:24:24;6.25;;;3.75;;
60979;SDS011;46851;49.160;8.980;2023-04-24T13:26:53;10.00;;;3.95;;
60979;SDS011;46851;49.160;8.980;2023-04-24T13:29:19;8.88;;;4.22;;
60979;SDS011;46851;49.160;8.980;2023-04-24T13:31:49;11.50;;;3.97;;
60979;SDS011;46851;49.160;8.980;2023-04-24T13:34:16;18.73;;;4.65;;
60979;SDS011;46851;49.160;8.980;2023-04-24T13:36:42;28.13;;;7.43;;
60979;SDS011;46851;49.160;8.980;2023-04-24T13:39:08;6.88;;;3.70;;
60979;SDS011;46851;49.160;8.980;2023-04-24T13:41:34;12.07;;;3.83;;
60979;SDS011;46851;49.160;8.980;2023-04-24T13:44:01;18.77;;;3.78;;
60979;SDS011;46851;49.160;8.980;2023-04-24T13:46:27;9.63;;;3.47;;
60979;SDS011;46851;49.160;8.980;2023-04-24T13:48:53;5.53;;;4.03;;
60979;SDS011;46851;49.160;8.980;2023-04-24T13:51:19;12.48;;;4.00;;
60979;SDS011;46851;49.160;8.980;2023-04-24T13:53:45;11.70;;;3.85;;
60979;SDS011;46851;49.160;8.980;2023-04-24T13:56:11;13.20;;;3.85;;
60979;SDS011;46851;49.160;8.980;2023-04-24T13:58:39;6.40;;;3.83;;
60979;SDS011;46851;49.160;8.980;2023-04-24T14:01:05;6.25;;;3.90;;
60979;SDS011;46851;49.160;8.980;2023-04-24T14:03:32;6.72;;;3.33;;
60979;SDS011;46851;49.160;8.980;2023-04-24T14:05:58;24.25;;;5.53;;
60979;SDS011;46851;49.160;8.980;2023-04-24T14:08:24;7.43;;;2.90;;
60979;SDS011;46851;49.160;8.980;2023-04-24T14:10:50;4.50;;;3.13;;
60979;SDS011;46851;49.160;8.980;2023-04-24T14:13:16;4.32;;;2.75;;
60979;SDS011;46851;49.160;8.980;2023-04-24T14:15:43;6.30;;;3.00;;
60979;SDS011;46851;49.160;8.980;2023-04-24T14:18:09;4.03;;;3.53;;
60979;SDS011;46851;49.160;8.980;2023-04-24T14:20:35;5.28;;;3.22;;
60979;SDS011;46851;49.160;8.980;2023-04-24T14:23:01;4.20;;;3.28;;
60979;SDS011;46851;49.160;8.980;2023-04-24T14:25:27;7.32;;;3.60;;
60979;SDS011;46851;49.160;8.980;2023-04-24T14:27:53;8.77;;;3.05;;
60979;SDS011;46851;49.160;8.980;2023-04-24T14:30:19;8.15;;;3.10;;
60979;SDS011;46851;49.160;8.980;2023-04-24T14:32:45;6.00;;;3.00;;
60979;SDS011;46851;49.160;8.980;2023-04-24T14:35:12;6.00;;;2.95;;
60979;SDS011;46851;49.160;8.980;2023-04-24T14:37:38;4.10;;;2.80;;
60979;SDS011;46851;49.160;8.980;2023-04-24T14:40:06;5.65;;;2.70;;
60979;SDS011;46851;49.160;8.980;2023-04-24T14:42:33;4.10;;;2.50;;
60979;SDS011;46851;49.160;8.980;2023-04-24T14:44:59;4.65;;;2.67;;
60979;SDS011;46851;49.160;8.980;2023-04-24T14:47:25;5.03;;;2.65;;
60979;SDS011;46851;49.160;8.980;2023-04-24T14:49:51;5.38;;;2.78;;
60979;SDS011;46851;49.160;8.980;2023-04-24T14:52:17;5.90;;;2.90;;
60979;SDS011;46851;49.160;8.980;2023-04-24T14:54:43;5.30;;;3.40;;
60979;SDS011;46851;49.160;8.980;2023-04-24T14:57:09;5.85;;;3.33;;